createdAt,value
2022-11-25T00:00:33.891Z,95000.72
2022-11-25T00:03:00.749Z,95000.34
2022-11-25T00:05:28.434Z,95003.00
2022-11-25T00:07:55.157Z,95003.47
2022-11-25T00:10:21.795Z,94993.03
2022-11-25T00:12:48.398Z,94997.13
2022-11-25T00:15:14.952Z,95003.34
2022-11-25T00:17:41.619Z,94996.97
2022-11-25T00:20:08.494Z,95002.69
2022-11-25T00:22:35.065Z,94999.91
2022-11-25T00:25:01.603Z,95004.25
2022-11-25T00:27:28.174Z,95005.97
2022-11-25T00:29:54.739Z,95004.34
2022-11-25T00:32:21.431Z,95002.88
2022-11-25T00:34:48.123Z,95002.25
2022-11-25T00:37:15.253Z,95005.50
2022-11-25T00:39:41.964Z,95006.97
2022-11-25T00:42:28.749Z,94999.09
2022-11-25T00:44:55.398Z,94994.09
2022-11-25T00:47:22.089Z,94998.97
2022-11-25T00:49:53.672Z,94985.06
2022-11-25T00:52:26.174Z,94993.84
2022-11-25T00:54:53.964Z,94993.28
2022-11-25T00:57:22.759Z,94984.03
2022-11-25T00:59:49.621Z,94988.59
2022-11-25T01:02:21.024Z,94986.47
2022-11-25T01:04:47.833Z,95002.72
2022-11-25T01:07:16.348Z,95001.59
2022-11-25T01:09:43.079Z,94988.91
2022-11-25T01:12:09.652Z,94991.00
2022-11-25T01:14:36.878Z,94992.00
2022-11-25T01:17:03.823Z,94984.84
2022-11-25T01:19:32.451Z,94988.00
2022-11-25T01:21:59.878Z,94985.53
2022-11-25T01:24:26.571Z,94989.22
2022-11-25T01:26:55.672Z,94995.53
2022-11-25T01:29:23.053Z,94994.41
2022-11-25T01:31:50.010Z,94999.88
2022-11-25T01:34:23.579Z,95000.38
2022-11-25T01:36:50.777Z,94994.81
2022-11-25T01:39:30.418Z,94994.06
2022-11-25T01:41:59.116Z,94988.03
2022-11-25T01:44:31.448Z,94990.47
2022-11-25T01:47:01.302Z,94983.94
2022-11-25T01:49:50.191Z,94987.31
2022-11-25T01:52:33.919Z,94984.78
2022-11-25T01:55:08.485Z,94986.41
2022-11-25T01:57:40.724Z,94978.16
2022-11-25T02:00:09.322Z,94975.38
2022-11-25T02:02:46.844Z,94983.88
2022-11-25T02:05:16.963Z,94980.34
2022-11-25T02:07:53.473Z,94988.59
2022-11-25T02:10:25.625Z,94985.09
2022-11-25T02:12:53.240Z,94987.47
2022-11-25T02:15:20.913Z,94976.44
2022-11-25T02:17:47.721Z,94973.81
2022-11-25T02:20:17.253Z,94975.44
2022-11-25T02:23:08.550Z,94972.91
2022-11-25T02:25:40.925Z,94981.31
2022-11-25T02:28:22.747Z,94975.91
2022-11-25T02:30:50.350Z,94975.81
2022-11-25T02:33:17.919Z,94975.13
2022-11-25T02:35:57.205Z,94982.13
2022-11-25T02:38:39.410Z,94984.75
2022-11-25T02:41:16.472Z,94979.28
2022-11-25T02:43:45.948Z,94980.09
2022-11-25T02:46:21.618Z,94975.28
2022-11-25T02:51:36.471Z,94970.84
2022-11-25T02:54:03.307Z,94976.50
2022-11-25T02:56:32.689Z,94985.25
2022-11-25T02:58:59.412Z,94984.44
2022-11-25T03:01:28.564Z,94989.06
2022-11-25T03:03:55.331Z,94986.69
2022-11-25T03:06:21.928Z,94976.41
2022-11-25T03:08:48.764Z,94976.50
2022-11-25T03:11:15.486Z,94972.22
2022-11-25T03:13:42.697Z,94984.16
2022-11-25T03:16:09.680Z,94978.28
2022-11-25T03:18:36.732Z,94984.53
2022-11-25T03:21:03.443Z,94987.13
2022-11-25T03:23:30.074Z,94978.22
2022-11-25T03:25:57.114Z,94969.78
2022-11-25T03:28:23.878Z,94976.56
2022-11-25T03:30:50.516Z,94982.63
2022-11-25T03:33:17.196Z,94980.88
2022-11-25T03:35:45.297Z,94987.78
2022-11-25T03:38:11.857Z,94989.41
2022-11-25T03:40:38.428Z,94990.06
2022-11-25T03:43:08.008Z,94979.09
2022-11-25T03:45:34.808Z,94976.81
2022-11-25T03:48:04.992Z,94971.75
2022-11-25T03:50:34.345Z,94980.88
2022-11-25T03:53:00.905Z,94979.50
2022-11-25T03:55:30.390Z,94989.72
2022-11-25T03:57:56.988Z,94983.00
2022-11-25T04:00:25.002Z,94990.53
2022-11-25T04:02:58.864Z,94991.69
2022-11-25T04:05:25.488Z,95000.38
2022-11-25T04:07:57.915Z,94993.31
2022-11-25T04:10:24.984Z,94989.47
2022-11-25T04:12:52.511Z,95002.22
2022-11-25T04:15:23.537Z,94995.53
2022-11-25T04:17:53.692Z,95002.94
2022-11-25T04:20:20.663Z,94996.81
2022-11-25T04:22:54.498Z,95006.63
2022-11-25T04:25:22.056Z,95007.84
2022-11-25T04:27:48.637Z,95011.00
2022-11-25T04:30:19.272Z,95002.97
2022-11-25T04:32:45.971Z,94997.72
2022-11-25T04:35:13.846Z,94994.84
2022-11-25T04:37:44.785Z,94977.91
2022-11-25T04:40:11.972Z,94981.09
2022-11-25T04:42:39.572Z,94981.81
2022-11-25T04:45:23.832Z,94991.78
2022-11-25T04:47:52.770Z,94985.72
2022-11-25T04:50:22.659Z,94981.47
2022-11-25T04:53:11.492Z,94982.91
2022-11-25T04:55:39.508Z,94985.63
2022-11-25T04:58:11.482Z,94979.66
2022-11-25T05:00:39.737Z,94988.69
2022-11-25T05:03:07.311Z,94988.78
2022-11-25T05:05:38.443Z,94994.06
2022-11-25T05:08:05.406Z,94999.22
2022-11-25T05:10:32.430Z,94999.03
2022-11-25T05:12:59.063Z,95003.19
2022-11-25T05:15:25.654Z,94993.97
2022-11-25T05:17:53.367Z,94988.91
2022-11-25T05:20:33.018Z,94998.13
2022-11-25T05:22:59.652Z,95000.03
2022-11-25T05:25:26.768Z,94992.50
2022-11-25T05:28:19.381Z,94999.22
2022-11-25T05:30:46.174Z,95006.16
2022-11-25T05:33:12.802Z,95009.22
2022-11-25T05:35:39.368Z,95016.84
2022-11-25T05:38:06.237Z,95013.22
2022-11-25T05:40:33.766Z,95020.84
2022-11-25T05:43:12.852Z,95022.53
2022-11-25T05:45:40.636Z,95024.19
2022-11-25T05:48:09.191Z,95019.38
2022-11-25T05:50:37.366Z,95022.09
2022-11-25T05:53:11.520Z,95013.75
2022-11-25T05:55:38.179Z,95008.06
2022-11-25T05:58:10.973Z,95009.50
2022-11-25T06:00:37.530Z,95005.50
2022-11-25T06:03:08.842Z,95008.13
2022-11-25T06:05:36.263Z,94999.06
2022-11-25T06:08:03.288Z,95011.81
2022-11-25T06:10:30.407Z,95009.56
2022-11-25T06:12:57.456Z,95004.75
2022-11-25T06:15:24.433Z,95008.94
2022-11-25T06:17:53.313Z,95002.13
2022-11-25T06:20:24.241Z,95000.41
2022-11-25T06:22:51.226Z,95006.47
2022-11-25T06:25:22.981Z,95015.97
2022-11-25T06:28:11.953Z,95027.03
2022-11-25T06:30:37.910Z,95021.31
2022-11-25T06:33:15.551Z,95020.41
2022-11-25T06:35:44.743Z,95015.53
2022-11-25T06:38:11.312Z,95017.88
2022-11-25T06:40:38.999Z,95022.13
2022-11-25T06:43:05.659Z,95015.88
2022-11-25T06:45:32.323Z,95030.94
2022-11-25T06:47:58.924Z,95031.75
2022-11-25T06:50:25.597Z,95025.88
2022-11-25T06:52:52.139Z,95029.97
2022-11-25T06:55:18.713Z,95040.75
2022-11-25T06:57:45.250Z,95038.84
2022-11-25T07:00:12.397Z,95040.31
2022-11-25T07:02:43.995Z,95037.50
2022-11-25T07:05:11.952Z,95036.78
2022-11-25T07:07:38.568Z,95039.50
2022-11-25T07:10:05.872Z,95040.16
2022-11-25T07:12:32.420Z,95041.06
2022-11-25T07:14:58.982Z,95036.81
2022-11-25T07:17:25.590Z,95036.19
2022-11-25T07:19:52.204Z,95034.44
2022-11-25T07:22:18.818Z,95029.34
2022-11-25T07:24:45.553Z,95034.53
2022-11-25T07:27:12.115Z,95036.00
2022-11-25T07:32:28.246Z,95045.94
2022-11-25T07:34:54.787Z,95044.25
2022-11-25T07:37:21.384Z,95047.06
2022-11-25T07:39:47.941Z,95054.03
2022-11-25T07:42:14.567Z,95056.69
2022-11-25T07:44:41.131Z,95059.66
2022-11-25T07:47:34.347Z,95062.19
2022-11-25T07:50:00.954Z,95055.13
2022-11-25T07:52:27.585Z,95055.66
2022-11-25T07:54:54.121Z,95052.41
2022-11-25T07:57:20.871Z,95050.47
2022-11-25T07:59:47.423Z,95049.59
2022-11-25T08:02:14.138Z,95043.84
2022-11-25T08:04:40.795Z,95039.84
2022-11-25T08:07:07.327Z,95039.63
2022-11-25T08:09:36.961Z,95043.09
2022-11-25T08:12:03.772Z,95041.09
2022-11-25T08:14:30.389Z,95042.72
2022-11-25T08:16:56.965Z,95040.81
2022-11-25T08:19:28.431Z,95043.97
2022-11-25T08:21:57.812Z,95048.06
2022-11-25T08:24:24.844Z,95061.91
2022-11-25T08:26:52.157Z,95061.19
2022-11-25T08:29:19.544Z,95066.13
2022-11-25T08:31:46.398Z,95071.19
2022-11-25T08:34:22.593Z,95077.00
2022-11-25T08:36:52.712Z,95081.53
2022-11-25T08:39:51.926Z,95083.91
2022-11-25T08:42:08.089Z,95086.25
2022-11-25T08:44:35.680Z,95091.78
2022-11-25T08:47:02.432Z,95091.50
2022-11-25T08:49:31.126Z,95099.03
2022-11-25T08:52:02.515Z,95110.03
2022-11-25T08:54:29.143Z,95111.56
2022-11-25T08:56:55.751Z,95109.66
2022-11-25T08:59:22.894Z,95113.25
2022-11-25T09:01:49.639Z,95115.13
2022-11-25T09:04:16.297Z,95113.63
2022-11-25T09:06:42.883Z,95111.13
2022-11-25T09:09:09.693Z,95114.00
2022-11-25T09:11:36.342Z,95113.84
2022-11-25T09:14:03.105Z,95121.53
2022-11-25T09:16:29.813Z,95129.09
2022-11-25T09:18:56.587Z,95126.88
2022-11-25T09:21:24.925Z,95116.72
2022-11-25T09:23:53.976Z,95117.06
2022-11-25T09:26:26.126Z,95113.97
2022-11-25T09:28:52.918Z,95112.09
2022-11-25T09:31:20.289Z,95122.88
2022-11-25T09:33:47.325Z,95117.09
2022-11-25T09:36:16.201Z,95119.06
2022-11-25T09:38:45.617Z,95118.28
2022-11-25T09:41:52.834Z,95119.66
2022-11-25T09:45:03.085Z,95114.19
2022-11-25T09:47:51.705Z,95110.44
2022-11-25T09:50:30.897Z,95115.59
2022-11-25T09:53:03.582Z,95114.81
2022-11-25T09:55:39.098Z,95116.72
2022-11-25T09:58:30.667Z,95117.41
2022-11-25T10:00:58.132Z,95129.16
2022-11-25T10:03:41.081Z,95129.31
2022-11-25T10:06:23.864Z,95124.22
2022-11-25T10:08:59.723Z,95122.09
2022-11-25T10:12:00.533Z,95120.97
2022-11-25T10:14:30.065Z,95120.94
2022-11-25T10:17:24.548Z,95119.94
2022-11-25T10:20:05.302Z,95126.34
2022-11-25T10:22:37.728Z,95119.81
2022-11-25T10:25:27.761Z,95122.31
2022-11-25T10:27:58.831Z,95119.25
2022-11-25T10:30:44.255Z,95113.63
2022-11-25T10:33:21.566Z,95123.78
2022-11-25T10:36:06.693Z,95117.66
2022-11-25T10:38:39.631Z,95110.72
2022-11-25T10:41:06.215Z,95120.06
2022-11-25T10:43:33.679Z,95119.50
2022-11-25T10:46:50.050Z,95123.19
2022-11-25T10:49:43.086Z,95117.38
2022-11-25T10:52:14.202Z,95118.53
2022-11-25T10:54:41.446Z,95127.13
2022-11-25T10:57:19.239Z,95118.25
2022-11-25T10:59:59.178Z,95127.25
2022-11-25T11:02:27.705Z,95125.72
2022-11-25T11:04:56.935Z,95126.84
2022-11-25T11:07:25.800Z,95119.22
2022-11-25T11:09:52.847Z,95132.09
2022-11-25T11:12:24.117Z,95128.03
2022-11-25T11:14:52.503Z,95129.06
2022-11-25T11:17:24.965Z,95122.72
2022-11-25T11:20:16.946Z,95121.91
2022-11-25T11:22:56.614Z,95124.75
2022-11-25T11:25:28.216Z,95125.53
2022-11-25T11:27:58.148Z,95122.38
2022-11-25T11:30:29.331Z,95120.31
2022-11-25T11:33:26.867Z,95115.88
2022-11-25T11:36:30.078Z,95115.88
2022-11-25T11:39:14.953Z,95115.13
2022-11-25T11:42:06.291Z,95116.22
2022-11-25T11:44:53.075Z,95105.13
2022-11-25T11:47:41.897Z,95108.06
2022-11-25T11:50:08.454Z,95105.09
2022-11-25T11:52:48.658Z,95108.00
2022-11-25T11:56:26.756Z,95102.91
2022-11-25T11:59:19.160Z,95103.09
2022-11-25T12:02:05.307Z,95095.84
2022-11-25T12:04:44.729Z,95092.72
2022-11-25T12:07:52.946Z,95095.38
2022-11-25T12:10:49.052Z,95086.25
2022-11-25T12:13:43.328Z,95091.47
2022-11-25T12:16:19.105Z,95084.63
2022-11-25T12:19:21.270Z,95084.75
2022-11-25T12:21:53.997Z,95077.72
2022-11-25T12:24:41.790Z,95080.56
2022-11-25T12:27:17.696Z,95076.22
2022-11-25T12:30:03.137Z,95082.44
2022-11-25T12:32:48.402Z,95081.69
2022-11-25T12:35:59.938Z,95078.69
2022-11-25T12:38:51.619Z,95068.81
2022-11-25T12:41:33.521Z,95079.88
2022-11-25T12:44:04.799Z,95080.88
2022-11-25T12:46:39.952Z,95081.22
2022-11-25T12:49:14.008Z,95082.75
2022-11-25T12:52:12.887Z,95084.09
2022-11-25T12:54:51.701Z,95083.09
2022-11-25T12:57:30.473Z,95083.84
2022-11-25T13:00:17.554Z,95085.59
2022-11-25T13:02:52.481Z,95089.72
2022-11-25T13:05:39.995Z,95091.97
2022-11-25T13:08:35.376Z,95085.50
2022-11-25T13:11:23.834Z,95093.13
2022-11-25T13:14:15.463Z,95094.28
2022-11-25T13:16:47.156Z,95087.91
2022-11-25T13:19:17.783Z,95094.09
2022-11-25T13:22:06.537Z,95097.03
2022-11-25T13:24:41.810Z,95096.41
2022-11-25T13:27:40.124Z,95096.66
2022-11-25T13:30:32.810Z,95093.44
2022-11-25T13:33:22.523Z,95103.00
2022-11-25T13:35:58.136Z,95106.88
2022-11-25T13:38:30.740Z,95111.75
2022-11-25T13:41:00.051Z,95116.13
2022-11-25T13:43:27.372Z,95124.84
2022-11-25T13:45:55.021Z,95120.59
2022-11-25T13:48:28.874Z,95127.75
2022-11-25T13:51:21.391Z,95127.97
2022-11-25T13:53:57.892Z,95132.59
2022-11-25T13:56:32.360Z,95130.53
2022-11-25T13:59:11.276Z,95135.34
2022-11-25T14:01:39.572Z,95137.91
2022-11-25T14:04:11.720Z,95142.41
2022-11-25T14:07:05.982Z,95145.91
2022-11-25T14:09:55.456Z,95142.19
2022-11-25T14:12:40.126Z,95159.59
2022-11-25T14:15:30.004Z,95161.53
2022-11-25T14:18:36.367Z,95167.81
2022-11-25T14:21:55.482Z,95181.81
2022-11-25T14:24:28.584Z,95182.16
2022-11-25T14:26:57.898Z,95191.13
2022-11-25T14:29:43.682Z,95204.53
2022-11-25T14:32:13.108Z,95203.84
2022-11-25T14:34:47.958Z,95204.81
2022-11-25T14:37:26.157Z,95203.69
2022-11-25T14:40:07.722Z,95210.53
2022-11-25T14:42:41.270Z,95215.34
2022-11-25T14:45:26.999Z,95220.44
2022-11-25T14:47:53.661Z,95227.09
2022-11-25T14:50:34.802Z,95220.81
2022-11-25T14:53:05.351Z,95233.44
2022-11-25T14:55:32.124Z,95229.63
2022-11-25T14:57:58.895Z,95229.94
2022-11-25T15:00:28.370Z,95232.69
2022-11-25T15:03:08.495Z,95234.84
2022-11-25T15:05:40.918Z,95238.47
2022-11-25T15:08:16.007Z,95243.66
2022-11-25T15:10:44.092Z,95254.28
2022-11-25T15:13:31.775Z,95259.88
2022-11-25T15:16:06.759Z,95260.69
2022-11-25T15:18:37.260Z,95268.84
2022-11-25T15:21:04.474Z,95263.38
2022-11-25T15:23:37.750Z,95263.94
2022-11-25T15:26:16.588Z,95269.00
2022-11-25T15:28:44.103Z,95271.75
2022-11-25T15:31:17.435Z,95275.38
2022-11-25T15:33:44.792Z,95274.94
2022-11-25T15:36:11.830Z,95284.78
2022-11-25T15:38:44.118Z,95285.06
2022-11-25T15:41:24.011Z,95289.78
2022-11-25T15:43:55.127Z,95295.13
2022-11-25T15:46:23.773Z,95297.47
2022-11-25T15:48:52.447Z,95305.91
2022-11-25T15:51:18.976Z,95310.22
2022-11-25T15:53:46.923Z,95309.09
2022-11-25T15:56:21.545Z,95315.41
2022-11-25T15:58:48.125Z,95311.56
2022-11-25T16:01:17.565Z,95325.94
2022-11-25T16:03:45.436Z,95321.72
2022-11-25T16:06:28.751Z,95320.69
2022-11-25T16:09:01.165Z,95324.53
2022-11-25T16:11:33.371Z,95321.03
2022-11-25T16:14:26.623Z,95329.41
2022-11-25T16:17:01.773Z,95328.94
2022-11-25T16:19:37.746Z,95335.59
2022-11-25T16:22:05.829Z,95335.69
2022-11-25T16:24:40.611Z,95347.19
2022-11-25T16:27:16.917Z,95351.53
2022-11-25T16:29:51.392Z,95354.25
2022-11-25T16:32:28.637Z,95365.47
2022-11-25T16:34:57.475Z,95358.16
2022-11-25T16:37:24.312Z,95364.97
2022-11-25T16:39:50.961Z,95363.94
2022-11-25T16:42:22.454Z,95371.81
2022-11-25T16:44:51.759Z,95374.41
2022-11-25T16:47:20.284Z,95378.66
2022-11-25T16:49:47.074Z,95378.38
2022-11-25T16:52:14.183Z,95383.19
2022-11-25T16:54:41.784Z,95379.84
2022-11-25T16:57:15.938Z,95380.03
2022-11-25T16:59:44.501Z,95389.66
2022-11-25T17:02:20.280Z,95390.25
2022-11-25T17:04:47.730Z,95394.25
2022-11-25T17:07:32.170Z,95396.34
2022-11-25T17:09:59.974Z,95402.97
2022-11-25T17:12:30.627Z,95404.03
2022-11-25T17:14:59.824Z,95409.94
2022-11-25T17:17:28.388Z,95412.75
2022-11-25T17:19:55.048Z,95416.97
2022-11-25T17:22:24.773Z,95414.53
2022-11-25T17:24:51.622Z,95427.56
2022-11-25T17:27:32.266Z,95428.38
2022-11-25T17:30:01.241Z,95427.44
2022-11-25T17:32:28.021Z,95430.72
2022-11-25T17:34:54.668Z,95432.56
2022-11-25T17:37:23.864Z,95436.66
2022-11-25T17:39:54.445Z,95450.13
2022-11-25T17:42:27.604Z,95471.53
2022-11-25T17:44:54.569Z,95476.38
2022-11-25T17:47:21.298Z,95487.13
2022-11-25T17:49:49.349Z,95484.91
2022-11-25T17:52:16.191Z,95489.63
2022-11-25T17:54:42.881Z,95489.75
2022-11-25T17:57:17.361Z,95496.97
2022-11-25T17:59:44.123Z,95503.13
2022-11-25T18:02:18.559Z,95502.53
2022-11-25T18:04:45.378Z,95501.34
2022-11-25T18:07:12.037Z,95506.66
2022-11-25T18:09:38.659Z,95512.03
2022-11-25T18:12:10.746Z,95510.72
2022-11-25T18:14:38.666Z,95514.88
2022-11-25T18:17:07.705Z,95519.66
2022-11-25T18:19:35.046Z,95523.59
2022-11-25T18:22:12.680Z,95526.69
2022-11-25T18:24:39.395Z,95520.56
2022-11-25T18:27:07.585Z,95526.69
2022-11-25T18:29:34.240Z,95541.16
2022-11-25T18:32:00.879Z,95538.00
2022-11-25T18:34:27.802Z,95541.91
2022-11-25T18:36:54.596Z,95533.22
2022-11-25T18:39:21.617Z,95537.13
2022-11-25T18:41:49.962Z,95541.31
2022-11-25T18:44:37.185Z,95548.84
2022-11-25T18:47:05.449Z,95548.44
2022-11-25T18:49:32.003Z,95546.63
2022-11-25T18:51:58.571Z,95546.81
2022-11-25T18:54:25.166Z,95555.84
2022-11-25T18:56:52.444Z,95555.97
2022-11-25T18:59:27.247Z,95562.34
2022-11-25T19:01:54.556Z,95565.38
2022-11-25T19:04:21.392Z,95567.72
2022-11-25T19:06:47.991Z,95569.19
2022-11-25T19:09:14.614Z,95577.66
2022-11-25T19:11:53.448Z,95567.72
2022-11-25T19:14:33.333Z,95580.63
2022-11-25T19:17:06.582Z,95587.50
2022-11-25T19:19:33.753Z,95590.59
2022-11-25T19:22:01.499Z,95596.00
2022-11-25T19:24:28.461Z,95600.41
2022-11-25T19:26:57.315Z,95603.38
2022-11-25T19:29:33.874Z,95611.97
2022-11-25T19:32:05.200Z,95617.09
2022-11-25T19:34:43.815Z,95619.84
2022-11-25T19:37:20.347Z,95621.16
2022-11-25T19:39:50.958Z,95639.00
2022-11-25T19:42:17.672Z,95642.47
2022-11-25T19:44:45.743Z,95641.03
2022-11-25T19:47:19.452Z,95647.38
2022-11-25T19:49:47.120Z,95657.59
2022-11-25T19:52:30.957Z,95653.72
2022-11-25T19:54:57.577Z,95657.50
2022-11-25T19:57:25.186Z,95663.84
2022-11-25T19:59:51.838Z,95664.22
2022-11-25T20:02:24.496Z,95670.44
2022-11-25T20:04:54.081Z,95669.50
2022-11-25T20:07:21.537Z,95672.88
2022-11-25T20:09:51.423Z,95682.56
2022-11-25T20:12:25.345Z,95690.06
2022-11-25T20:14:52.618Z,95691.50
2022-11-25T20:17:31.497Z,95697.63
2022-11-25T20:20:03.173Z,95697.03
2022-11-25T20:22:32.454Z,95704.31
2022-11-25T20:25:02.098Z,95703.06
2022-11-25T20:27:29.268Z,95712.56
2022-11-25T20:29:56.302Z,95716.66
2022-11-25T20:32:28.882Z,95718.88
2022-11-25T20:34:56.914Z,95728.19
2022-11-25T20:37:29.539Z,95723.38
2022-11-25T20:39:58.328Z,95733.28
2022-11-25T20:42:25.470Z,95735.94
2022-11-25T20:44:57.309Z,95744.88
2022-11-25T20:47:26.142Z,95741.81
2022-11-25T20:49:53.645Z,95745.66
2022-11-25T20:52:26.278Z,95761.00
2022-11-25T20:54:52.913Z,95755.69
2022-11-25T20:57:19.521Z,95760.09
2022-11-25T20:59:46.182Z,95762.47
2022-11-25T21:02:12.888Z,95765.44
2022-11-25T21:04:39.781Z,95763.81
2022-11-25T21:07:13.535Z,95766.09
2022-11-25T21:09:40.900Z,95767.19
2022-11-25T21:12:18.789Z,95771.50
2022-11-25T21:14:46.942Z,95777.94
2022-11-25T21:17:13.473Z,95784.28
2022-11-25T21:19:40.045Z,95786.31
2022-11-25T21:22:06.707Z,95786.56
2022-11-25T21:24:38.440Z,95788.66
2022-11-25T21:27:14.158Z,95793.34
2022-11-25T21:29:42.939Z,95797.16
2022-11-25T21:32:20.539Z,95798.28
2022-11-25T21:34:47.385Z,95799.81
2022-11-25T21:37:14.414Z,95798.91
2022-11-25T21:39:41.994Z,95808.13
2022-11-25T21:42:18.457Z,95812.69
2022-11-25T21:44:46.605Z,95808.03
2022-11-25T21:47:16.654Z,95808.03
2022-11-25T21:49:43.270Z,95810.84
2022-11-25T21:52:10.098Z,95818.16
2022-11-25T21:54:36.831Z,95814.00
2022-11-25T21:57:03.885Z,95824.44
2022-11-25T21:59:30.916Z,95825.94
2022-11-25T22:01:57.612Z,95836.56
2022-11-25T22:04:24.626Z,95839.44
2022-11-25T22:06:51.512Z,95842.28
2022-11-25T22:09:18.216Z,95836.34
2022-11-25T22:11:47.671Z,95833.41
2022-11-25T22:14:22.890Z,95839.78
2022-11-25T22:16:49.668Z,95838.75
2022-11-25T22:19:20.416Z,95840.50
2022-11-25T22:21:47.076Z,95836.97
2022-11-25T22:24:18.506Z,95844.00
2022-11-25T22:26:47.672Z,95839.63
2022-11-25T22:29:21.089Z,95848.22
2022-11-25T22:31:48.731Z,95844.22
2022-11-25T22:34:21.582Z,95848.22
2022-11-25T22:36:49.001Z,95848.94
2022-11-25T22:39:18.080Z,95846.38
2022-11-25T22:41:47.890Z,95850.50
2022-11-25T22:44:21.927Z,95854.31
2022-11-25T22:46:49.494Z,95855.84
2022-11-25T22:49:46.260Z,95854.94
2022-11-25T22:52:27.618Z,95852.81
2022-11-25T22:54:54.923Z,95854.81
2022-11-25T22:57:21.565Z,95851.53
2022-11-25T22:59:48.085Z,95855.28
2022-11-25T23:02:32.796Z,95855.28
2022-11-25T23:04:59.612Z,95856.28
2022-11-25T23:07:27.058Z,95863.31
2022-11-25T23:09:54.221Z,95863.28
2022-11-25T23:12:20.884Z,95866.69
2022-11-25T23:14:47.552Z,95862.16
2022-11-25T23:17:25.339Z,95867.81
2022-11-25T23:19:52.408Z,95876.44
2022-11-25T23:22:19.313Z,95870.00
2022-11-25T23:24:48.165Z,95871.81
2022-11-25T23:27:16.008Z,95876.09
2022-11-25T23:29:42.653Z,95878.69
2022-11-25T23:32:18.595Z,95871.53
2022-11-25T23:34:46.056Z,95871.28
2022-11-25T23:37:13.758Z,95875.44
2022-11-25T23:39:40.750Z,95867.75
2022-11-25T23:42:16.724Z,95880.75
2022-11-25T23:44:43.459Z,95877.94
2022-11-25T23:47:17.261Z,95882.53
2022-11-25T23:49:46.407Z,95884.34
2022-11-25T23:52:16.568Z,95892.13
2022-11-25T23:54:45.876Z,95886.34
2022-11-25T23:57:20.121Z,95889.94
2022-11-25T23:59:47.963Z,95891.78
